sensor_id;sensor_type;location;lat;lon;timestamp;P1;durP1;ratioP1;P2;durP2;ratioP2
62256;SDS011;48240;52.962;5.790;2024-02-14T04:50:08;0.90;;;0.47;;
62256;SDS011;48240;52.962;5.790;2024-02-14T04:52:34;0.57;;;0.40;;
62256;SDS011;48240;52.962;5.790;2024-02-14T04:55:00;0.60;;;0.50;;
62256;SDS011;48240;52.962;5.790;2024-02-14T04:57:27;0.98;;;0.50;;
62256;SDS011;48240;52.962;5.790;2024-02-14T04:59:53;0.90;;;0.50;;
62256;SDS011;48240;52.962;5.790;2024-02-14T05:02:19;1.45;;;0.60;;
62256;SDS011;48240;52.962;5.790;2024-02-14T05:04:45;0.82;;;0.45;;
62256;SDS011;48240;52.962;5.790;2024-02-14T05:07:11;1.95;;;0.60;;
62256;SDS011;48240;52.962;5.790;2024-02-14T05:09:37;2.58;;;0.63;;
62256;SDS011;48240;52.962;5.790;2024-02-14T05:12:03;1.23;;;0.55;;
62256;SDS011;48240;52.962;5.790;2024-02-14T05:14:29;1.08;;;0.60;;
62256;SDS011;48240;52.962;5.790;2024-02-14T05:16:56;0.98;;;0.88;;
62256;SDS011;48240;52.962;5.790;2024-02-14T05:19:22;1.45;;;0.63;;
62256;SDS011;48240;52.962;5.790;2024-02-14T05:21:49;1.90;;;0.60;;
62256;SDS011;48240;52.962;5.790;2024-02-14T05:24:15;1.17;;;0.40;;
62256;SDS011;48240;52.962;5.790;2024-02-14T05:26:41;1.48;;;0.70;;
62256;SDS011;48240;52.962;5.790;2024-02-14T05:29:07;3.08;;;0.80;;
62256;SDS011;48240;52.962;5.790;2024-02-14T05:31:43;2.15;;;0.88;;
62256;SDS011;48240;52.962;5.790;2024-02-14T05:34:09;4.15;;;0.80;;
62256;SDS011;48240;52.962;5.790;2024-02-14T05:36:35;2.28;;;0.70;;
62256;SDS011;48240;52.962;5.790;2024-02-14T05:39:02;2.60;;;0.80;;
62256;SDS011;48240;52.962;5.790;2024-02-14T05:41:28;2.95;;;0.80;;
62256;SDS011;48240;52.962;5.790;2024-02-14T05:43:55;3.90;;;0.80;;
62256;SDS011;48240;52.962;5.790;2024-02-14T05:46:21;2.28;;;0.70;;
62256;SDS011;48240;52.962;5.790;2024-02-14T05:48:47;2.33;;;0.65;;
62256;SDS011;48240;52.962;5.790;2024-02-14T05:51:13;2.13;;;0.85;;
62256;SDS011;48240;52.962;5.790;2024-02-14T05:53:39;2.45;;;0.77;;
62256;SDS011;48240;52.962;5.790;2024-02-14T05:56:05;4.50;;;1.10;;
62256;SDS011;48240;52.962;5.790;2024-02-14T05:58:32;1.65;;;0.60;;
62256;SDS011;48240;52.962;5.790;2024-02-14T06:00:58;5.10;;;0.98;;
62256;SDS011;48240;52.962;5.790;2024-02-14T06:03:24;5.03;;;1.17;;
62256;SDS011;48240;52.962;5.790;2024-02-14T06:05:50;4.32;;;0.93;;
62256;SDS011;48240;52.962;5.790;2024-02-14T06:08:16;3.40;;;1.00;;
62256;SDS011;48240;52.962;5.790;2024-02-14T06:10:42;4.65;;;1.02;;
62256;SDS011;48240;52.962;5.790;2024-02-14T06:13:08;4.72;;;1.10;;
62256;SDS011;48240;52.962;5.790;2024-02-14T06:15:34;5.32;;;1.30;;
62256;SDS011;48240;52.962;5.790;2024-02-14T06:18:01;4.47;;;1.20;;
62256;SDS011;48240;52.962;5.790;2024-02-14T06:20:27;4.30;;;0.95;;
62256;SDS011;48240;52.962;5.790;2024-02-14T06:22:53;6.63;;;1.48;;
62256;SDS011;48240;52.962;5.790;2024-02-14T06:25:20;5.20;;;1.17;;
62256;SDS011;48240;52.962;5.790;2024-02-14T06:27:46;6.53;;;1.35;;
62256;SDS011;48240;52.962;5.790;2024-02-14T06:30:12;5.68;;;1.60;;
62256;SDS011;48240;52.962;5.790;2024-02-14T06:32:38;5.93;;;1.52;;
62256;SDS011;48240;52.962;5.790;2024-02-14T06:35:04;6.72;;;1.45;;
62256;SDS011;48240;52.962;5.790;2024-02-14T06:37:30;6.13;;;1.45;;
62256;SDS011;48240;52.962;5.790;2024-02-14T06:39:56;4.78;;;1.30;;
62256;SDS011;48240;52.962;5.790;2024-02-14T06:42:22;5.20;;;1.30;;
62256;SDS011;48240;52.962;5.790;2024-02-14T06:44:49;6.95;;;1.58;;
62256;SDS011;48240;52.962;5.790;2024-02-14T06:47:15;7.28;;;1.60;;
62256;SDS011;48240;52.962;5.790;2024-02-14T06:49:41;5.47;;;1.52;;
62256;SDS011;48240;52.962;5.790;2024-02-14T06:52:07;6.70;;;1.50;;
62256;SDS011;48240;52.962;5.790;2024-02-14T06:54:33;5.90;;;1.60;;
62256;SDS011;48240;52.962;5.790;2024-02-14T06:56:59;5.88;;;1.55;;
62256;SDS011;48240;52.962;5.790;2024-02-14T06:59:26;6.05;;;1.33;;
62256;SDS011;48240;52.962;5.790;2024-02-14T07:01:53;7.63;;;1.60;;
62256;SDS011;48240;52.962;5.790;2024-02-14T07:04:20;7.40;;;1.50;;
62256;SDS011;48240;52.962;5.790;2024-02-14T07:06:51;6.45;;;1.52;;
62256;SDS011;48240;52.962;5.790;2024-02-14T07:09:17;6.20;;;1.33;;
62256;SDS011;48240;52.962;5.790;2024-02-14T07:11:43;10.15;;;1.73;;
62256;SDS011;48240;52.962;5.790;2024-02-14T07:14:11;7.70;;;1.55;;
62256;SDS011;48240;52.962;5.790;2024-02-14T07:16:37;5.78;;;1.50;;
62256;SDS011;48240;52.962;5.790;2024-02-14T07:19:03;5.30;;;1.17;;
62256;SDS011;48240;52.962;5.790;2024-02-14T07:21:29;5.47;;;1.75;;
62256;SDS011;48240;52.962;5.790;2024-02-14T07:23:55;7.65;;;1.70;;
62256;SDS011;48240;52.962;5.790;2024-02-14T07:26:21;4.38;;;1.10;;
62256;SDS011;48240;52.962;5.790;2024-02-14T07:28:47;6.60;;;1.35;;
62256;SDS011;48240;52.962;5.790;2024-02-14T07:31:13;9.55;;;1.90;;
62256;SDS011;48240;52.962;5.790;2024-02-14T07:33:39;7.18;;;1.40;;
62256;SDS011;48240;52.962;5.790;2024-02-14T07:36:06;7.15;;;1.50;;
62256;SDS011;48240;52.962;5.790;2024-02-14T07:38:34;6.82;;;1.60;;
62256;SDS011;48240;52.962;5.790;2024-02-14T07:41:00;8.10;;;1.67;;
62256;SDS011;48240;52.962;5.790;2024-02-14T07:43:26;7.70;;;1.80;;
62256;SDS011;48240;52.962;5.790;2024-02-14T07:45:52;5.05;;;1.70;;
62256;SDS011;48240;52.962;5.790;2024-02-14T07:48:18;7.45;;;1.55;;
62256;SDS011;48240;52.962;5.790;2024-02-14T07:50:45;11.88;;;2.00;;
62256;SDS011;48240;52.962;5.790;2024-02-14T07:53:11;5.95;;;1.60;;
62256;SDS011;48240;52.962;5.790;2024-02-14T07:55:37;7.47;;;1.63;;
62256;SDS011;48240;52.962;5.790;2024-02-14T07:58:05;7.25;;;1.70;;
62256;SDS011;48240;52.962;5.790;2024-02-14T08:00:31;5.65;;;1.77;;
62256;SDS011;48240;52.962;5.790;2024-02-14T08:02:57;6.18;;;1.65;;
62256;SDS011;48240;52.962;5.790;2024-02-14T08:05:23;6.60;;;1.52;;
62256;SDS011;48240;52.962;5.790;2024-02-14T08:07:49;8.52;;;2.00;;
62256;SDS011;48240;52.962;5.790;2024-02-14T08:10:15;4.55;;;1.38;;
62256;SDS011;48240;52.962;5.790;2024-02-14T08:12:41;5.90;;;1.30;;
62256;SDS011;48240;52.962;5.790;2024-02-14T08:15:08;8.90;;;1.90;;
62256;SDS011;48240;52.962;5.790;2024-02-14T08:17:34;6.40;;;1.50;;
62256;SDS011;48240;52.962;5.790;2024-02-14T08:20:00;8.27;;;1.60;;
62256;SDS011;48240;52.962;5.790;2024-02-14T08:22:27;6.55;;;1.38;;
62256;SDS011;48240;52.962;5.790;2024-02-14T08:24:53;5.65;;;1.33;;
62256;SDS011;48240;52.962;5.790;2024-02-14T08:27:20;8.07;;;2.13;;
62256;SDS011;48240;52.962;5.790;2024-02-14T08:29:50;5.75;;;1.60;;
62256;SDS011;48240;52.962;5.790;2024-02-14T08:32:16;9.85;;;2.03;;
62256;SDS011;48240;52.962;5.790;2024-02-14T08:34:42;7.30;;;1.85;;
62256;SDS011;48240;52.962;5.790;2024-02-14T08:37:08;8.00;;;1.77;;
62256;SDS011;48240;52.962;5.790;2024-02-14T08:39:35;4.72;;;1.42;;
62256;SDS011;48240;52.962;5.790;2024-02-14T08:42:01;7.78;;;2.20;;
62256;SDS011;48240;52.962;5.790;2024-02-14T08:44:32;7.00;;;1.73;;
62256;SDS011;48240;52.962;5.790;2024-02-14T08:46:59;9.93;;;1.90;;
62256;SDS011;48240;52.962;5.790;2024-02-14T08:49:25;6.10;;;1.48;;
62256;SDS011;48240;52.962;5.790;2024-02-14T08:51:52;8.15;;;1.77;;
62256;SDS011;48240;52.962;5.790;2024-02-14T08:54:18;7.00;;;1.42;;
62256;SDS011;48240;52.962;5.790;2024-02-14T08:56:45;4.55;;;1.23;;
62256;SDS011;48240;52.962;5.790;2024-02-14T08:59:11;7.32;;;1.55;;
62256;SDS011;48240;52.962;5.790;2024-02-14T09:01:38;4.22;;;1.27;;
62256;SDS011;48240;52.962;5.790;2024-02-14T09:04:04;5.75;;;1.73;;
62256;SDS011;48240;52.962;5.790;2024-02-14T09:06:30;8.20;;;1.80;;
62256;SDS011;48240;52.962;5.790;2024-02-14T09:08:58;7.65;;;1.73;;
62256;SDS011;48240;52.962;5.790;2024-02-14T09:11:24;6.55;;;1.60;;
62256;SDS011;48240;52.962;5.790;2024-02-14T09:13:50;5.78;;;1.45;;
62256;SDS011;48240;52.962;5.790;2024-02-14T09:16:21;6.53;;;1.63;;
62256;SDS011;48240;52.962;5.790;2024-02-14T09:18:48;6.22;;;1.70;;
62256;SDS011;48240;52.962;5.790;2024-02-14T09:21:14;7.38;;;1.63;;
62256;SDS011;48240;52.962;5.790;2024-02-14T09:23:46;5.87;;;1.47;;
62256;SDS011;48240;52.962;5.790;2024-02-14T09:26:12;4.97;;;1.27;;
62256;SDS011;48240;52.962;5.790;2024-02-14T09:28:41;5.25;;;1.40;;
62256;SDS011;48240;52.962;5.790;2024-02-14T09:31:07;5.25;;;1.40;;
62256;SDS011;48240;52.962;5.790;2024-02-14T09:33:36;6.53;;;1.98;;
62256;SDS011;48240;52.962;5.790;2024-02-14T09:36:02;6.32;;;1.55;;
62256;SDS011;48240;52.962;5.790;2024-02-14T09:38:29;3.78;;;1.13;;
62256;SDS011;48240;52.962;5.790;2024-02-14T09:43:43;5.63;;;1.58;;
62256;SDS011;48240;52.962;5.790;2024-02-14T09:46:11;4.30;;;1.60;;
62256;SDS011;48240;52.962;5.790;2024-02-14T09:48:37;4.97;;;1.35;;
62256;SDS011;48240;52.962;5.790;2024-02-14T09:51:05;5.75;;;1.40;;
62256;SDS011;48240;52.962;5.790;2024-02-14T09:53:31;4.13;;;1.40;;
62256;SDS011;48240;52.962;5.790;2024-02-14T09:55:58;7.63;;;1.60;;
62256;SDS011;48240;52.962;5.790;2024-02-14T09:58:25;4.40;;;1.30;;
62256;SDS011;48240;52.962;5.790;2024-02-14T10:00:58;8.38;;;1.30;;
62256;SDS011;48240;52.962;5.790;2024-02-14T10:03:24;3.47;;;1.27;;
62256;SDS011;48240;52.962;5.790;2024-02-14T10:05:51;4.95;;;1.20;;
62256;SDS011;48240;52.962;5.790;2024-02-14T10:08:21;4.57;;;1.30;;
62256;SDS011;48240;52.962;5.790;2024-02-14T10:10:48;4.85;;;1.20;;
62256;SDS011;48240;52.962;5.790;2024-02-14T10:13:15;4.60;;;1.05;;
62256;SDS011;48240;52.962;5.790;2024-02-14T10:15:41;5.15;;;1.38;;
62256;SDS011;48240;52.962;5.790;2024-02-14T10:18:07;4.88;;;1.50;;
62256;SDS011;48240;52.962;5.790;2024-02-14T10:20:34;4.53;;;1.15;;
62256;SDS011;48240;52.962;5.790;2024-02-14T10:23:06;4.82;;;1.33;;
62256;SDS011;48240;52.962;5.790;2024-02-14T10:25:34;4.25;;;1.25;;
62256;SDS011;48240;52.962;5.790;2024-02-14T10:28:03;4.20;;;1.30;;
62256;SDS011;48240;52.962;5.790;2024-02-14T10:30:30;4.33;;;1.47;;
62256;SDS011;48240;52.962;5.790;2024-02-14T10:32:58;3.58;;;1.13;;
62256;SDS011;48240;52.962;5.790;2024-02-14T10:35:24;4.70;;;1.17;;
62256;SDS011;48240;52.962;5.790;2024-02-14T10:37:51;2.10;;;0.98;;
62256;SDS011;48240;52.962;5.790;2024-02-14T10:40:18;3.03;;;1.20;;
62256;SDS011;48240;52.962;5.790;2024-02-14T10:42:46;2.58;;;1.00;;
62256;SDS011;48240;52.962;5.790;2024-02-14T10:45:12;3.03;;;0.98;;
62256;SDS011;48240;52.962;5.790;2024-02-14T10:47:39;4.07;;;1.30;;
62256;SDS011;48240;52.962;5.790;2024-02-14T10:50:06;3.05;;;1.20;;
62256;SDS011;48240;52.962;5.790;2024-02-14T10:52:35;3.08;;;0.90;;
62256;SDS011;48240;52.962;5.790;2024-02-14T10:55:02;2.92;;;1.00;;
62256;SDS011;48240;52.962;5.790;2024-02-14T10:57:29;4.45;;;1.17;;
62256;SDS011;48240;52.962;5.790;2024-02-14T10:59:57;3.10;;;1.10;;
62256;SDS011;48240;52.962;5.790;2024-02-14T11:02:24;3.10;;;1.00;;
62256;SDS011;48240;52.962;5.790;2024-02-14T11:04:50;2.92;;;0.93;;
62256;SDS011;48240;52.962;5.790;2024-02-14T11:07:22;2.95;;;1.10;;
62256;SDS011;48240;52.962;5.790;2024-02-14T11:09:48;3.92;;;1.10;;
62256;SDS011;48240;52.962;5.790;2024-02-14T11:12:15;2.78;;;0.85;;
62256;SDS011;48240;52.962;5.790;2024-02-14T11:14:44;2.72;;;0.85;;
62256;SDS011;48240;52.962;5.790;2024-02-14T11:17:13;3.17;;;1.00;;
62256;SDS011;48240;52.962;5.790;2024-02-14T11:19:40;3.05;;;1.05;;
62256;SDS011;48240;52.962;5.790;2024-02-14T11:22:39;3.60;;;1.10;;
62256;SDS011;48240;52.962;5.790;2024-02-14T11:24:58;1.88;;;0.90;;
62256;SDS011;48240;52.962;5.790;2024-02-14T11:27:32;2.55;;;0.88;;
62256;SDS011;48240;52.962;5.790;2024-02-14T11:29:59;3.28;;;0.85;;
62256;SDS011;48240;52.962;5.790;2024-02-14T11:32:26;3.97;;;1.17;;
62256;SDS011;48240;52.962;5.790;2024-02-14T11:34:56;3.00;;;0.85;;
62256;SDS011;48240;52.962;5.790;2024-02-14T11:37:29;3.10;;;1.33;;
62256;SDS011;48240;52.962;5.790;2024-02-14T11:40:00;4.03;;;0.90;;
62256;SDS011;48240;52.962;5.790;2024-02-14T11:42:26;2.55;;;0.82;;
62256;SDS011;48240;52.962;5.790;2024-02-14T11:44:52;3.70;;;0.95;;
62256;SDS011;48240;52.962;5.790;2024-02-14T11:47:22;2.38;;;0.90;;
62256;SDS011;48240;52.962;5.790;2024-02-14T11:49:48;2.17;;;0.88;;
62256;SDS011;48240;52.962;5.790;2024-02-14T11:52:14;1.98;;;0.80;;
62256;SDS011;48240;52.962;5.790;2024-02-14T11:54:45;1.90;;;0.77;;
62256;SDS011;48240;52.962;5.790;2024-02-14T11:57:16;4.47;;;1.25;;
62256;SDS011;48240;52.962;5.790;2024-02-14T11:59:42;2.70;;;0.85;;
62256;SDS011;48240;52.962;5.790;2024-02-14T12:02:08;4.05;;;1.00;;
62256;SDS011;48240;52.962;5.790;2024-02-14T12:04:34;1.80;;;0.85;;
62256;SDS011;48240;52.962;5.790;2024-02-14T12:07:01;1.58;;;0.60;;
62256;SDS011;48240;52.962;5.790;2024-02-14T12:09:27;1.52;;;0.80;;
62256;SDS011;48240;52.962;5.790;2024-02-14T12:11:53;1.75;;;0.77;;
62256;SDS011;48240;52.962;5.790;2024-02-14T12:14:21;1.63;;;0.70;;
62256;SDS011;48240;52.962;5.790;2024-02-14T12:16:50;1.98;;;0.60;;
62256;SDS011;48240;52.962;5.790;2024-02-14T12:19:16;1.58;;;0.80;;
62256;SDS011;48240;52.962;5.790;2024-02-14T12:21:42;2.13;;;0.68;;
62256;SDS011;48240;52.962;5.790;2024-02-14T12:24:09;1.30;;;0.70;;
62256;SDS011;48240;52.962;5.790;2024-02-14T12:26:36;1.38;;;0.70;;
62256;SDS011;48240;52.962;5.790;2024-02-14T12:29:02;1.52;;;0.70;;
62256;SDS011;48240;52.962;5.790;2024-02-14T12:31:29;1.50;;;0.50;;
62256;SDS011;48240;52.962;5.790;2024-02-14T12:33:59;1.20;;;0.77;;
62256;SDS011;48240;52.962;5.790;2024-02-14T12:36:27;1.25;;;0.50;;
62256;SDS011;48240;52.962;5.790;2024-02-14T12:38:54;2.50;;;0.65;;
62256;SDS011;48240;52.962;5.790;2024-02-14T12:41:20;1.33;;;0.70;;
62256;SDS011;48240;52.962;5.790;2024-02-14T12:43:49;1.83;;;0.80;;
62256;SDS011;48240;52.962;5.790;2024-02-14T12:46:15;1.25;;;0.73;;
62256;SDS011;48240;52.962;5.790;2024-02-14T12:48:41;1.55;;;0.80;;
62256;SDS011;48240;52.962;5.790;2024-02-14T12:51:07;1.88;;;0.60;;
62256;SDS011;48240;52.962;5.790;2024-02-14T12:53:34;0.95;;;0.60;;
62256;SDS011;48240;52.962;5.790;2024-02-14T12:56:00;1.85;;;0.80;;
62256;SDS011;48240;52.962;5.790;2024-02-14T12:58:26;1.80;;;0.70;;
62256;SDS011;48240;52.962;5.790;2024-02-14T13:00:53;1.63;;;0.70;;
62256;SDS011;48240;52.962;5.790;2024-02-14T13:03:19;1.20;;;0.73;;
62256;SDS011;48240;52.962;5.790;2024-02-14T13:05:45;1.15;;;0.70;;
62256;SDS011;48240;52.962;5.790;2024-02-14T13:08:12;1.98;;;0.90;;
62256;SDS011;48240;52.962;5.790;2024-02-14T13:10:38;1.77;;;0.80;;
62256;SDS011;48240;52.962;5.790;2024-02-14T13:13:04;2.53;;;1.02;;
62256;SDS011;48240;52.962;5.790;2024-02-14T13:15:30;0.88;;;0.70;;
62256;SDS011;48240;52.962;5.790;2024-02-14T13:17:56;1.75;;;0.77;;
62256;SDS011;48240;52.962;5.790;2024-02-14T13:20:24;1.75;;;0.90;;
62256;SDS011;48240;52.962;5.790;2024-02-14T13:22:50;1.30;;;0.85;;
62256;SDS011;48240;52.962;5.790;2024-02-14T13:25:17;0.70;;;0.70;;
62256;SDS011;48240;52.962;5.790;2024-02-14T13:27:43;1.67;;;0.80;;
62256;SDS011;48240;52.962;5.790;2024-02-14T13:30:09;1.33;;;0.75;;
62256;SDS011;48240;52.962;5.790;2024-02-14T13:32:36;0.90;;;0.70;;
62256;SDS011;48240;52.962;5.790;2024-02-14T13:35:02;0.63;;;0.57;;
62256;SDS011;48240;52.962;5.790;2024-02-14T13:37:30;2.10;;;0.90;;
62256;SDS011;48240;52.962;5.790;2024-02-14T13:39:57;1.48;;;0.80;;
62256;SDS011;48240;52.962;5.790;2024-02-14T13:42:23;0.80;;;0.80;;
62256;SDS011;48240;52.962;5.790;2024-02-14T13:44:49;1.40;;;0.80;;
62256;SDS011;48240;52.962;5.790;2024-02-14T13:47:18;1.17;;;0.60;;
62256;SDS011;48240;52.962;5.790;2024-02-14T13:49:44;1.42;;;0.80;;
62256;SDS011;48240;52.962;5.790;2024-02-14T13:52:10;2.10;;;0.90;;
62256;SDS011;48240;52.962;5.790;2024-02-14T13:54:37;1.40;;;0.80;;
62256;SDS011;48240;52.962;5.790;2024-02-14T13:57:03;0.90;;;0.70;;
62256;SDS011;48240;52.962;5.790;2024-02-14T13:59:29;2.38;;;0.80;;
62256;SDS011;48240;52.962;5.790;2024-02-14T14:01:55;0.60;;;0.60;;
62256;SDS011;48240;52.962;5.790;2024-02-14T14:04:21;1.48;;;0.70;;
62256;SDS011;48240;52.962;5.790;2024-02-14T14:06:47;1.23;;;0.65;;
62256;SDS011;48240;52.962;5.790;2024-02-14T14:09:13;0.90;;;0.60;;
62256;SDS011;48240;52.962;5.790;2024-02-14T14:11:40;0.88;;;0.70;;
62256;SDS011;48240;52.962;5.790;2024-02-14T14:14:06;1.48;;;0.90;;
62256;SDS011;48240;52.962;5.790;2024-02-14T14:16:33;0.85;;;0.70;;
62256;SDS011;48240;52.962;5.790;2024-02-14T14:19:00;1.20;;;0.60;;
62256;SDS011;48240;52.962;5.790;2024-02-14T14:21:26;1.45;;;0.70;;
62256;SDS011;48240;52.962;5.790;2024-02-14T14:23:52;0.65;;;0.65;;
62256;SDS011;48240;52.962;5.790;2024-02-14T14:26:18;1.23;;;0.60;;
62256;SDS011;48240;52.962;5.790;2024-02-14T14:28:45;0.85;;;0.63;;
62256;SDS011;48240;52.962;5.790;2024-02-14T14:31:12;0.50;;;0.50;;
62256;SDS011;48240;52.962;5.790;2024-02-14T14:33:38;1.02;;;0.60;;
62256;SDS011;48240;52.962;5.790;2024-02-14T14:36:04;1.45;;;0.60;;
62256;SDS011;48240;52.962;5.790;2024-02-14T14:38:30;0.93;;;0.70;;
62256;SDS011;48240;52.962;5.790;2024-02-14T14:40:56;0.80;;;0.70;;
62256;SDS011;48240;52.962;5.790;2024-02-14T14:43:24;1.05;;;0.85;;
62256;SDS011;48240;52.962;5.790;2024-02-14T14:45:50;0.70;;;0.70;;
62256;SDS011;48240;52.962;5.790;2024-02-14T14:48:18;0.90;;;0.70;;
62256;SDS011;48240;52.962;5.790;2024-02-14T14:50:44;0.60;;;0.60;;
62256;SDS011;48240;52.962;5.790;2024-02-14T14:53:10;0.75;;;0.68;;
62256;SDS011;48240;52.962;5.790;2024-02-14T14:55:49;1.38;;;0.70;;
62256;SDS011;48240;52.962;5.790;2024-02-14T14:58:15;0.70;;;0.70;;
62256;SDS011;48240;52.962;5.790;2024-02-14T15:00:42;0.80;;;0.80;;
62256;SDS011;48240;52.962;5.790;2024-02-14T15:03:09;0.70;;;0.70;;
62256;SDS011;48240;52.962;5.790;2024-02-14T15:05:37;0.90;;;0.57;;
62256;SDS011;48240;52.962;5.790;2024-02-14T15:08:03;0.95;;;0.80;;
62256;SDS011;48240;52.962;5.790;2024-02-14T15:10:29;0.60;;;0.60;;
62256;SDS011;48240;52.962;5.790;2024-02-14T15:12:55;0.93;;;0.60;;
62256;SDS011;48240;52.962;5.790;2024-02-14T15:15:22;0.80;;;0.60;;
62256;SDS011;48240;52.962;5.790;2024-02-14T15:17:48;0.77;;;0.70;;
62256;SDS011;48240;52.962;5.790;2024-02-14T15:20:14;1.25;;;0.75;;
62256;SDS011;48240;52.962;5.790;2024-02-14T15:22:40;1.13;;;0.70;;
62256;SDS011;48240;52.962;5.790;2024-02-14T15:25:07;1.02;;;0.60;;
62256;SDS011;48240;52.962;5.790;2024-02-14T15:27:33;0.55;;;0.55;;
62256;SDS011;48240;52.962;5.790;2024-02-14T15:30:01;0.63;;;0.52;;
62256;SDS011;48240;52.962;5.790;2024-02-14T15:32:46;0.65;;;0.65;;
62256;SDS011;48240;52.962;5.790;2024-02-14T15:35:31;0.57;;;0.55;;
62256;SDS011;48240;52.962;5.790;2024-02-14T15:37:57;0.75;;;0.50;;
62256;SDS011;48240;52.962;5.790;2024-02-14T15:40:23;1.20;;;0.70;;
62256;SDS011;48240;52.962;5.790;2024-02-14T15:42:50;1.10;;;0.60;;
62256;SDS011;48240;52.962;5.790;2024-02-14T15:45:17;1.00;;;0.60;;
62256;SDS011;48240;52.962;5.790;2024-02-14T15:47:44;1.30;;;0.50;;
62256;SDS011;48240;52.962;5.790;2024-02-14T15:50:10;0.55;;;0.55;;
62256;SDS011;48240;52.962;5.790;2024-02-14T15:52:36;0.95;;;0.63;;
62256;SDS011;48240;52.962;5.790;2024-02-14T15:55:06;0.68;;;0.63;;
62256;SDS011;48240;52.962;5.790;2024-02-14T15:57:33;0.60;;;0.60;;
62256;SDS011;48240;52.962;5.790;2024-02-14T16:00:00;0.50;;;0.50;;
62256;SDS011;48240;52.962;5.790;2024-02-14T16:02:30;0.40;;;0.40;;
62256;SDS011;48240;52.962;5.790;2024-02-14T16:04:56;0.40;;;0.40;;
62256;SDS011;48240;52.962;5.790;2024-02-14T16:07:22;0.60;;;0.50;;
62256;SDS011;48240;52.962;5.790;2024-02-14T16:09:49;0.77;;;0.65;;
62256;SDS011;48240;52.962;5.790;2024-02-14T16:12:15;0.88;;;0.52;;
62256;SDS011;48240;52.962;5.790;2024-02-14T16:14:41;0.52;;;0.52;;
62256;SDS011;48240;52.962;5.790;2024-02-14T16:17:09;0.57;;;0.45;;
62256;SDS011;48240;52.962;5.790;2024-02-14T16:19:36;1.13;;;0.60;;
62256;SDS011;48240;52.962;5.790;2024-02-14T16:22:02;0.60;;;0.57;;
62256;SDS011;48240;52.962;5.790;2024-02-14T16:24:29;0.63;;;0.63;;
62256;SDS011;48240;52.962;5.790;2024-02-14T16:26:59;0.68;;;0.50;;
62256;SDS011;48240;52.962;5.790;2024-02-14T16:29:26;0.50;;;0.50;;
62256;SDS011;48240;52.962;5.790;2024-02-14T16:31:52;1.00;;;0.60;;
62256;SDS011;48240;52.962;5.790;2024-02-14T16:34:18;0.63;;;0.60;;
62256;SDS011;48240;52.962;5.790;2024-02-14T16:36:44;0.75;;;0.70;;
62256;SDS011;48240;52.962;5.790;2024-02-14T16:39:10;0.50;;;0.50;;
62256;SDS011;48240;52.962;5.790;2024-02-14T16:41:37;0.50;;;0.50;;
62256;SDS011;48240;52.962;5.790;2024-02-14T16:44:03;0.50;;;0.50;;
62256;SDS011;48240;52.962;5.790;2024-02-14T16:46:30;1.25;;;0.63;;
62256;SDS011;48240;52.962;5.790;2024-02-14T16:48:56;0.50;;;0.50;;
62256;SDS011;48240;52.962;5.790;2024-02-14T16:51:22;0.70;;;0.60;;
62256;SDS011;48240;52.962;5.790;2024-02-14T16:53:48;0.50;;;0.50;;
62256;SDS011;48240;52.962;5.790;2024-02-14T16:56:14;0.50;;;0.47;;
62256;SDS011;48240;52.962;5.790;2024-02-14T16:58:42;0.70;;;0.60;;
62256;SDS011;48240;52.962;5.790;2024-02-14T17:01:09;0.75;;;0.40;;
62256;SDS011;48240;52.962;5.790;2024-02-14T17:03:35;1.20;;;0.70;;
62256;SDS011;48240;52.962;5.790;2024-02-14T17:06:01;0.50;;;0.50;;
62256;SDS011;48240;52.962;5.790;2024-02-14T17:08:29;0.63;;;0.63;;
62256;SDS011;48240;52.962;5.790;2024-02-14T17:10:58;1.05;;;0.80;;
62256;SDS011;48240;52.962;5.790;2024-02-14T17:13:27;0.50;;;0.50;;
62256;SDS011;48240;52.962;5.790;2024-02-14T17:15:53;4.22;;;0.68;;
62256;SDS011;48240;52.962;5.790;2024-02-14T17:18:20;1.20;;;0.80;;
62256;SDS011;48240;52.962;5.790;2024-02-14T17:20:47;3.28;;;0.52;;
62256;SDS011;48240;52.962;5.790;2024-02-14T17:23:14;2.22;;;0.70;;
62256;SDS011;48240;52.962;5.790;2024-02-14T17:25:40;0.57;;;0.50;;
62256;SDS011;48240;52.962;5.790;2024-02-14T17:28:09;0.95;;;0.60;;
62256;SDS011;48240;52.962;5.790;2024-02-14T17:30:35;1.17;;;0.57;;
62256;SDS011;48240;52.962;5.790;2024-02-14T17:33:01;1.15;;;0.63;;
62256;SDS011;48240;52.962;5.790;2024-02-14T17:35:29;0.68;;;0.50;;
62256;SDS011;48240;52.962;5.790;2024-02-14T17:37:55;1.08;;;0.65;;
62256;SDS011;48240;52.962;5.790;2024-02-14T17:40:21;1.00;;;0.60;;
62256;SDS011;48240;52.962;5.790;2024-02-14T17:42:47;1.17;;;0.63;;
62256;SDS011;48240;52.962;5.790;2024-02-14T17:45:13;1.38;;;0.60;;
62256;SDS011;48240;52.962;5.790;2024-02-14T17:47:40;1.85;;;0.75;;
62256;SDS011;48240;52.962;5.790;2024-02-14T17:50:06;1.27;;;0.60;;
62256;SDS011;48240;52.962;5.790;2024-02-14T17:52:35;1.10;;;0.70;;
62256;SDS011;48240;52.962;5.790;2024-02-14T17:55:05;2.13;;;0.77;;
62256;SDS011;48240;52.962;5.790;2024-02-14T17:57:32;1.23;;;0.60;;
62256;SDS011;48240;52.962;5.790;2024-02-14T17:59:58;1.33;;;0.80;;
62256;SDS011;48240;52.962;5.790;2024-02-14T18:02:24;1.05;;;0.70;;
62256;SDS011;48240;52.962;5.790;2024-02-14T18:04:50;1.15;;;0.70;;
62256;SDS011;48240;52.962;5.790;2024-02-14T18:07:18;1.65;;;0.75;;
62256;SDS011;48240;52.962;5.790;2024-02-14T18:09:44;0.90;;;0.60;;
62256;SDS011;48240;52.962;5.790;2024-02-14T18:12:10;1.23;;;0.60;;
62256;SDS011;48240;52.962;5.790;2024-02-14T18:14:36;0.93;;;0.60;;
62256;SDS011;48240;52.962;5.790;2024-02-14T18:17:02;1.15;;;0.65;;
62256;SDS011;48240;52.962;5.790;2024-02-14T18:19:28;1.20;;;0.70;;
62256;SDS011;48240;52.962;5.790;2024-02-14T18:21:54;0.98;;;0.60;;
62256;SDS011;48240;52.962;5.790;2024-02-14T18:24:21;1.40;;;0.60;;
62256;SDS011;48240;52.962;5.790;2024-02-14T18:26:47;0.88;;;0.60;;
62256;SDS011;48240;52.962;5.790;2024-02-14T18:29:14;1.73;;;0.70;;
62256;SDS011;48240;52.962;5.790;2024-02-14T18:31:40;1.35;;;0.68;;
62256;SDS011;48240;52.962;5.790;2024-02-14T18:34:06;1.85;;;0.73;;
62256;SDS011;48240;52.962;5.790;2024-02-14T18:36:35;2.05;;;0.70;;
62256;SDS011;48240;52.962;5.790;2024-02-14T18:39:01;2.20;;;0.70;;
62256;SDS011;48240;52.962;5.790;2024-02-14T18:41:28;2.38;;;0.75;;
62256;SDS011;48240;52.962;5.790;2024-02-14T18:43:54;1.17;;;0.60;;
62256;SDS011;48240;52.962;5.790;2024-02-14T18:46:20;2.40;;;0.73;;
62256;SDS011;48240;52.962;5.790;2024-02-14T18:48:47;4.45;;;0.73;;
62256;SDS011;48240;52.962;5.790;2024-02-14T18:51:13;2.67;;;0.70;;
62256;SDS011;48240;52.962;5.790;2024-02-14T18:53:40;1.38;;;0.60;;
62256;SDS011;48240;52.962;5.790;2024-02-14T18:56:11;1.73;;;0.73;;
62256;SDS011;48240;52.962;5.790;2024-02-14T18:58:37;1.95;;;0.75;;
62256;SDS011;48240;52.962;5.790;2024-02-14T19:01:03;2.50;;;0.80;;
62256;SDS011;48240;52.962;5.790;2024-02-14T19:03:29;1.83;;;0.75;;
62256;SDS011;48240;52.962;5.790;2024-02-14T19:05:55;1.85;;;0.70;;
62256;SDS011;48240;52.962;5.790;2024-02-14T19:08:21;5.25;;;1.20;;
62256;SDS011;48240;52.962;5.790;2024-02-14T19:10:47;2.15;;;0.73;;
62256;SDS011;48240;52.962;5.790;2024-02-14T19:13:14;3.20;;;0.95;;
62256;SDS011;48240;52.962;5.790;2024-02-14T19:15:40;2.95;;;0.95;;
62256;SDS011;48240;52.962;5.790;2024-02-14T19:18:06;2.92;;;0.75;;
62256;SDS011;48240;52.962;5.790;2024-02-14T19:20:32;2.13;;;0.77;;
62256;SDS011;48240;52.962;5.790;2024-02-14T19:22:59;3.13;;;0.98;;
62256;SDS011;48240;52.962;5.790;2024-02-14T19:25:26;2.45;;;1.00;;
62256;SDS011;48240;52.962;5.790;2024-02-14T19:27:53;0.98;;;0.57;;
62256;SDS011;48240;52.962;5.790;2024-02-14T19:30:19;2.22;;;0.93;;
62256;SDS011;48240;52.962;5.790;2024-02-14T19:32:46;2.20;;;0.70;;
62256;SDS011;48240;52.962;5.790;2024-02-14T19:35:12;3.67;;;1.05;;
62256;SDS011;48240;52.962;5.790;2024-02-14T19:37:38;1.50;;;0.75;;